Time;durP1;ratioP1;P1;durP2;ratioP2;P2;SDS_P1;SDS_P2;PMS_P1;PMS_P2;Temp;Humidity;BMP_temperature;BMP_pressure;BME280_temperature;BME280_humidity;BME280_pressure;Samples;Min_cycle;Max_cycle;Signal;HPM_P1;HPM_P2
2022/01/26 00:07:55;;;;;;;0.80;0.80;;;-0.90;99.90;;;;;;5050656;28;20546;-59
2022/01/26 00:10:24;;;;;;;1.30;1.20;;;-0.80;99.90;;;;;;5052413;28;20446;-57
2022/01/26 00:12:51;;;;;;;2.90;1.10;;;-0.80;99.90;;;;;;5048758;28;21030;-58
2022/01/26 00:15:18;;;;;;;1.20;1.00;;;-1.00;99.90;;;;;;5054751;28;20464;-58
2022/01/26 00:17:45;;;;;;;1.77;1.10;;;-0.90;99.90;;;;;;5051436;28;20499;-59
2022/01/26 00:20:19;;;;;;;2.40;1.00;;;-0.90;99.90;;;;;;5049719;28;20545;-56
2022/01/26 00:23:01;;;;;;;1.23;0.97;;;-0.80;99.90;;;;;;5043182;28;20467;-57
2022/01/26 00:25:40;;;;;;;3.13;1.00;;;-0.80;99.90;;;;;;5044765;28;20452;-58
2022/01/26 00:28:33;;;;;;;1.60;1.50;;;-0.80;99.90;;;;;;5058825;28;20457;-57
2022/01/26 00:39:13;;;;;;;1.80;1.33;;;-0.90;99.90;;;;;;5054107;28;20479;-56
2022/01/26 00:41:44;;;;;;;0.87;0.77;;;-0.80;99.90;;;;;;5059424;28;20549;-58
2022/01/26 00:44:11;;;;;;;0.80;0.77;;;-0.80;99.90;;;;;;5061687;28;20524;-58
2022/01/26 00:46:41;;;;;;;0.90;0.70;;;-0.90;99.90;;;;;;5056796;28;20441;-57
2022/01/26 00:49:08;;;;;;;0.77;0.70;;;-1.10;99.90;;;;;;5052332;28;20466;-57
2022/01/26 00:51:35;;;;;;;1.27;0.90;;;-1.10;99.90;;;;;;5056691;28;20548;-59
2022/01/26 00:54:05;;;;;;;0.70;0.70;;;-1.10;99.90;;;;;;5059170;28;20434;-57
2022/01/26 00:56:33;;;;;;;1.30;1.20;;;-1.20;99.90;;;;;;5046892;28;20474;-59
2022/01/26 00:59:02;;;;;;;2.83;2.17;;;-1.10;99.90;;;;;;5053464;28;20491;-58
2022/01/26 01:01:29;;;;;;;4.87;3.90;;;-1.30;99.90;;;;;;5055856;28;20966;-57
2022/01/26 01:03:56;;;;;;;2.23;2.03;;;-2.10;99.90;;;;;;5051221;28;20514;-59
2022/01/26 01:06:26;;;;;;;1.13;1.03;;;-2.10;99.90;;;;;;5056231;28;20578;-58
2022/01/26 01:08:56;;;;;;;3.47;2.20;;;-2.00;99.90;;;;;;5069973;23;20497;-49
2022/01/26 01:11:23;;;;;;;4.50;3.70;;;-1.90;99.90;;;;;;5051860;28;21362;-49
2022/01/26 01:13:50;;;;;;;3.10;2.63;;;-2.10;99.90;;;;;;5055948;28;21003;-52
2022/01/26 01:16:22;;;;;;;1.87;1.77;;;-2.20;99.90;;;;;;5058315;28;20521;-53
2022/01/26 01:18:58;;;;;;;2.70;2.50;;;-2.10;99.90;;;;;;5041879;28;20560;-52
2022/01/26 01:21:59;;;;;;;2.27;1.83;;;-1.90;99.90;;;;;;5042049;28;20462;-53
2022/01/26 01:29:55;;;;;;;1.27;1.07;;;-2.10;99.90;;;;;;5008736;28;20516;-50
2022/01/26 01:32:31;;;;;;;1.13;1.03;;;-2.00;99.90;;;;;;5054544;28;20473;-51
2022/01/26 01:35:00;;;;;;;1.40;1.20;;;-1.80;99.90;;;;;;5049681;28;20440;-51
2022/01/26 01:37:26;;;;;;;2.67;1.80;;;-1.70;99.90;;;;;;5051007;28;20847;-50
2022/01/26 01:39:53;;;;;;;1.43;1.03;;;-1.60;99.90;;;;;;5045865;28;20519;-53
2022/01/26 01:42:21;;;;;;;1.47;1.27;;;-1.70;99.90;;;;;;5055008;28;20464;-52
2022/01/26 01:44:47;;;;;;;6.70;4.83;;;-1.50;99.90;;;;;;5062226;28;20448;-53
2022/01/26 01:47:15;;;;;;;2.70;2.27;;;-1.50;99.90;;;;;;5050185;28;20485;-51
2022/01/26 01:49:43;;;;;;;2.80;0.90;;;-1.40;99.90;;;;;;5057448;28;20559;-52
2022/01/26 01:52:14;;;;;;;1.07;0.97;;;-1.60;99.90;;;;;;5060434;28;20509;-47
2022/01/26 01:54:48;;;;;;;0.67;0.67;;;-1.50;99.90;;;;;;5049323;28;20494;-53
2022/01/26 01:57:21;;;;;;;5.97;3.30;;;-1.50;99.90;;;;;;5046150;28;20454;-46
2022/01/26 01:59:47;;;;;;;2.40;2.20;;;-1.40;99.90;;;;;;5056719;28;20838;-52
2022/01/26 02:02:14;;;;;;;1.47;1.07;;;-1.50;99.90;;;;;;5057647;28;20540;-50
2022/01/26 02:04:43;;;;;;;1.13;1.03;;;-1.70;99.90;;;;;;5057048;28;20862;-51
2022/01/26 02:07:11;;;;;;;8.17;2.80;;;-1.70;99.90;;;;;;5050556;28;20887;-50
2022/01/26 02:09:38;;;;;;;2.10;1.90;;;-1.70;99.90;;;;;;5050439;28;20498;-52
2022/01/26 02:12:14;;;;;;;1.47;1.00;;;-1.60;99.90;;;;;;5052788;28;20482;-52
2022/01/26 02:14:46;;;;;;;1.10;1.00;;;-1.60;99.90;;;;;;5059754;28;20496;-50
2022/01/26 02:17:24;;;;;;;1.40;1.30;;;-1.60;99.90;;;;;;5050579;28;20487;-49
2022/01/26 02:20:26;;;;;;;0.80;0.80;;;-1.50;99.90;;;;;;5046503;28;20538;-51
2022/01/26 02:51:02;;;;;;;1.27;0.90;;;-1.60;99.90;;;;;;5058601;28;20432;-53
2022/01/26 02:53:47;;;;;;;0.80;0.70;;;-1.60;99.90;;;;;;5065722;28;20465;-51
2022/01/26 02:56:22;;;;;;;1.57;1.10;;;-1.50;99.90;;;;;;5041113;28;20478;-48
2022/01/26 02:59:06;;;;;;;2.00;1.50;;;-1.50;99.90;;;;;;5050119;28;21002;-52
2022/01/26 03:01:46;;;;;;;1.03;1.00;;;-1.50;99.90;;;;;;5051338;28;20460;-52
2022/01/26 03:04:20;;;;;;;0.70;0.70;;;-1.60;99.90;;;;;;5056236;28;20478;-49
2022/01/26 03:06:54;;;;;;;1.30;1.20;;;-1.80;99.90;;;;;;5064247;28;20493;-51
2022/01/26 03:09:26;;;;;;;1.00;0.90;;;-1.80;99.90;;;;;;5052463;28;20499;-49
2022/01/26 03:11:55;;;;;;;1.03;1.00;;;-1.70;99.90;;;;;;5044309;28;20449;-49
2022/01/26 03:14:31;;;;;;;1.40;1.20;;;-1.70;99.90;;;;;;5054828;28;20447;-50
2022/01/26 03:17:04;;;;;;;0.83;0.70;;;-1.70;99.90;;;;;;5053541;28;20858;-52
2022/01/26 03:19:36;;;;;;;2.23;1.03;;;-1.70;99.90;;;;;;5055821;28;21125;-48
2022/01/26 03:30:31;;;;;;;1.10;1.00;;;-2.30;99.90;;;;;;5058873;28;20702;-50
2022/01/26 03:33:11;;;;;;;3.50;3.20;;;-2.10;99.90;;;;;;5053485;28;20477;-49
2022/01/26 03:35:44;;;;;;;2.53;2.23;;;-2.00;99.90;;;;;;5061515;28;20518;-51
2022/01/26 03:38:18;;;;;;;1.47;1.23;;;-2.20;99.90;;;;;;5047998;28;20480;-51
2022/01/26 03:40:46;;;;;;;1.70;1.43;;;-2.10;99.90;;;;;;5048941;28;20811;-49
2022/01/26 03:43:14;;;;;;;0.80;0.80;;;-2.00;99.90;;;;;;5050278;28;20479;-51
2022/01/26 03:45:41;;;;;;;1.20;1.10;;;-1.90;99.90;;;;;;5062520;28;20473;-50
2022/01/26 03:48:08;;;;;;;4.10;2.20;;;-1.80;99.90;;;;;;5063529;28;20488;-52
2022/01/26 03:50:35;;;;;;;1.13;1.03;;;-1.70;99.90;;;;;;5050846;28;20484;-52
2022/01/26 03:53:02;;;;;;;1.03;0.90;;;-2.00;99.90;;;;;;5052010;28;20568;-50
2022/01/26 03:55:29;;;;;;;1.63;0.97;;;-2.20;99.90;;;;;;5049785;28;20954;-51
2022/01/26 03:57:56;;;;;;;0.60;0.60;;;-2.00;99.90;;;;;;5058949;28;20496;-50
2022/01/26 04:00:24;;;;;;;1.17;1.07;;;-1.90;99.90;;;;;;5055708;28;21261;-49
2022/01/26 04:02:51;;;;;;;3.10;2.43;;;-1.80;99.90;;;;;;5055008;28;20571;-46
2022/01/26 04:05:18;;;;;;;0.80;0.80;;;-1.80;99.90;;;;;;5047579;28;20477;-50
2022/01/26 04:07:46;;;;;;;2.30;0.93;;;-2.00;99.90;;;;;;5047599;28;20562;-50
2022/01/26 04:10:21;;;;;;;1.87;1.50;;;-1.90;99.90;;;;;;5047658;28;20494;-50
2022/01/26 04:12:48;;;;;;;0.70;0.70;;;-1.90;99.90;;;;;;5047191;28;20476;-52
2022/01/26 04:15:24;;;;;;;0.50;0.50;;;-1.80;99.90;;;;;;5051940;28;20452;-48
2022/01/26 04:17:52;;;;;;;5.13;3.20;;;-1.60;99.90;;;;;;5039511;28;20474;-51
2022/01/26 04:20:22;;;;;;;3.07;2.50;;;-1.50;99.90;;;;;;5052591;28;20434;-49
2022/01/26 04:23:06;;;;;;;2.47;1.43;;;-1.50;99.90;;;;;;5051572;28;20448;-49
2022/01/26 04:25:34;;;;;;;1.57;1.07;;;-2.20;99.90;;;;;;5052714;28;20482;-49
2022/01/26 04:28:06;;;;;;;1.53;1.43;;;-2.40;99.90;;;;;;5061469;28;20827;-50
2022/01/26 04:30:33;;;;;;;1.10;1.10;;;-2.20;99.90;;;;;;5062209;28;20461;-50
2022/01/26 04:33:04;;;;;;;1.93;1.03;;;-2.20;99.90;;;;;;5052164;28;20640;-50
2022/01/26 04:35:31;;;;;;;0.87;0.73;;;-2.30;99.90;;;;;;5046833;28;20473;-51
2022/01/26 04:38:13;;;;;;;1.33;1.00;;;-2.20;99.90;;;;;;5054896;28;20465;-50
2022/01/26 04:40:48;;;;;;;1.60;1.50;;;-2.00;99.90;;;;;;5056645;28;21088;-51
2022/01/26 04:43:19;;;;;;;2.80;2.57;;;-2.00;99.90;;;;;;5048141;28;20451;-49
2022/01/26 04:45:46;;;;;;;3.20;3.00;;;-2.40;99.90;;;;;;5051541;28;20480;-51
2022/01/26 04:48:14;;;;;;;5.90;5.30;;;-2.80;99.90;;;;;;5050955;28;20552;-49
2022/01/26 04:50:41;;;;;;;7.87;6.73;;;-2.90;99.90;;;;;;5053566;28;20491;-49
2022/01/26 04:53:08;;;;;;;9.60;8.03;;;-3.10;99.90;;;;;;5059190;28;20512;-50
2022/01/26 04:55:35;;;;;;;9.50;8.47;;;-3.10;99.90;;;;;;5053861;28;20491;-48
2022/01/26 04:58:02;;;;;;;6.97;6.20;;;-3.00;99.90;;;;;;5050879;28;20497;-50
2022/01/26 05:00:29;;;;;;;5.67;5.03;;;-2.90;99.90;;;;;;5052589;28;20457;-51
2022/01/26 05:02:55;;;;;;;7.07;5.37;;;-2.90;99.90;;;;;;5051483;28;20468;-49
2022/01/26 05:05:24;;;;;;;4.37;3.60;;;-3.20;99.90;;;;;;5053312;28;20522;-50
2022/01/26 05:07:51;;;;;;;4.40;3.37;;;-3.00;99.90;;;;;;5043193;28;20540;-51
2022/01/26 05:10:18;;;;;;;3.50;3.13;;;-2.70;99.90;;;;;;5052472;28;20480;-49
2022/01/26 05:12:45;;;;;;;3.60;2.90;;;-2.80;99.90;;;;;;5043384;28;20480;-50
2022/01/26 05:15:12;;;;;;;2.80;2.53;;;-3.00;99.90;;;;;;5046053;28;20567;-49
2022/01/26 05:17:41;;;;;;;3.30;3.00;;;-2.70;99.90;;;;;;5049519;28;20484;-51
2022/01/26 05:20:10;;;;;;;10.00;3.50;;;-2.50;99.90;;;;;;5051433;28;20837;-50
2022/01/26 05:22:39;;;;;;;6.67;6.03;;;-2.30;99.90;;;;;;5063941;28;20454;-48
2022/01/26 05:25:07;;;;;;;9.00;6.63;;;-2.20;99.90;;;;;;5048075;28;20450;-50
2022/01/26 05:27:34;;;;;;;5.57;5.00;;;-2.40;99.90;;;;;;5051063;28;20992;-50
2022/01/26 05:30:00;;;;;;;5.40;4.30;;;-2.70;99.90;;;;;;5055864;28;20488;-51
2022/01/26 05:32:27;;;;;;;5.73;5.17;;;-2.60;99.90;;;;;;5060571;28;20485;-50
2022/01/26 05:34:54;;;;;;;5.43;4.97;;;-2.50;99.90;;;;;;5062628;28;20862;-50
2022/01/26 05:37:21;;;;;;;21.23;8.60;;;-2.50;99.90;;;;;;5048121;28;20489;-50
2022/01/26 05:39:50;;;;;;;9.40;5.43;;;-2.90;99.90;;;;;;5055595;28;20496;-48
2022/01/26 05:42:17;;;;;;;6.13;5.50;;;-3.10;99.90;;;;;;5044299;28;20530;-47
2022/01/26 05:44:45;;;;;;;7.90;7.10;;;-3.00;99.90;;;;;;5049025;28;21003;-50
2022/01/26 05:47:16;;;;;;;7.60;6.83;;;-2.80;99.90;;;;;;5052147;28;20448;-51
2022/01/26 05:49:43;;;;;;;7.50;6.57;;;-2.60;99.90;;;;;;5053092;28;20469;-51
2022/01/26 05:52:11;;;;;;;9.10;7.40;;;-2.60;99.90;;;;;;5056695;28;20979;-49
2022/01/26 05:54:38;;;;;;;14.07;9.20;;;-2.50;99.90;;;;;;5058611;28;20523;-48
2022/01/26 05:57:06;;;;;;;8.20;7.40;;;-2.40;99.90;;;;;;5053641;28;20478;-49
2022/01/26 05:59:33;;;;;;;14.87;7.07;;;-2.40;99.90;;;;;;5050377;28;20501;-50
2022/01/26 06:02:01;;;;;;;12.03;7.20;;;-2.60;99.90;;;;;;5047516;28;20484;-52
2022/01/26 06:04:28;;;;;;;12.53;7.47;;;-2.50;99.90;;;;;;5041863;28;20467;-51
2022/01/26 06:06:56;;;;;;;39.53;10.53;;;-2.40;99.90;;;;;;5060658;28;20808;-50
2022/01/26 06:09:24;;;;;;;47.50;13.17;;;-2.80;99.90;;;;;;5046408;28;20505;-49
2022/01/26 06:11:51;;;;;;;46.67;10.33;;;-3.20;99.90;;;;;;5043040;28;20972;-51
2022/01/26 06:14:19;;;;;;;23.60;8.57;;;-3.40;99.90;;;;;;5042205;28;20502;-49
2022/01/26 06:16:46;;;;;;;37.87;8.50;;;-3.40;99.90;;;;;;5040651;28;20481;-50
2022/01/26 06:19:13;;;;;;;22.70;8.47;;;-3.50;99.90;;;;;;5038710;28;20524;-49
2022/01/26 06:21:40;;;;;;;16.40;11.27;;;-3.50;99.90;;;;;;5042411;28;20550;-51
2022/01/26 06:24:07;;;;;;;42.63;14.40;;;-3.30;99.90;;;;;;5046651;28;20513;-49
2022/01/26 06:26:34;;;;;;;71.13;11.30;;;-3.30;99.90;;;;;;5044231;28;20930;-50
2022/01/26 06:29:01;;;;;;;20.53;10.50;;;-3.60;99.90;;;;;;5041186;28;20458;-51
2022/01/26 06:31:30;;;;;;;8.57;6.00;;;-3.60;99.90;;;;;;5041656;28;20499;-51
2022/01/26 06:34:01;;;;;;;6.70;5.43;;;-3.50;99.90;;;;;;5041979;28;20517;-50
2022/01/26 06:36:28;;;;;;;7.30;6.00;;;-3.20;99.90;;;;;;5055723;28;20440;-52
2022/01/26 06:38:55;;;;;;;10.57;8.40;;;-3.10;99.90;;;;;;5045496;28;20487;-51
2022/01/26 06:41:26;;;;;;;15.50;9.60;;;-2.90;99.90;;;;;;5052685;28;20470;-49
2022/01/26 06:44:00;;;;;;;26.30;16.00;;;-2.90;99.90;;;;;;5045230;28;20499;-51
2022/01/26 06:46:36;;;;;;;16.47;10.80;;;-2.80;99.90;;;;;;5062565;28;20929;-49
2022/01/26 06:51:44;;;;;;;18.87;11.40;;;-2.60;99.90;;;;;;5048897;28;20444;-49
2022/01/26 06:54:11;;;;;;;16.60;8.50;;;-2.50;99.90;;;;;;5054306;28;20927;-49
2022/01/26 06:56:38;;;;;;;16.10;10.33;;;-2.50;99.90;;;;;;5059431;28;20477;-49
2022/01/26 06:59:05;;;;;;;17.30;9.43;;;-2.50;99.90;;;;;;5059965;28;20487;-49
2022/01/26 07:01:33;;;;;;;13.23;9.57;;;-2.40;99.90;;;;;;5053352;28;20477;-52
2022/01/26 07:04:00;;;;;;;26.10;11.90;;;-2.50;99.90;;;;;;5053446;28;20487;-51
2022/01/26 07:06:27;;;;;;;21.50;11.27;;;-2.40;99.90;;;;;;5058882;28;20966;-49
2022/01/26 07:08:54;;;;;;;23.77;12.00;;;-2.40;99.90;;;;;;5063463;22;20497;-57
2022/01/26 07:11:21;;;;;;;15.80;11.07;;;-2.40;99.90;;;;;;5055646;28;20475;-55
2022/01/26 07:13:50;;;;;;;13.20;11.60;;;-2.40;99.90;;;;;;5058602;28;20511;-56
2022/01/26 07:21:47;;;;;;;52.40;10.67;;;-2.40;99.90;;;;;;5061120;28;20426;-57
2022/01/26 07:24:14;;;;;;;23.37;9.07;;;-2.40;99.90;;;;;;5054331;28;20476;-55
2022/01/26 07:26:42;;;;;;;15.00;8.30;;;-2.30;99.90;;;;;;5055086;28;20481;-55
2022/01/26 07:29:11;;;;;;;8.67;6.93;;;-2.30;99.90;;;;;;5060490;28;20473;-54
2022/01/26 07:31:42;;;;;;;12.33;8.20;;;-2.40;99.90;;;;;;5065482;28;20453;-55
2022/01/26 07:34:11;;;;;;;21.67;10.00;;;-2.30;99.90;;;;;;5047624;28;20581;-55
2022/01/26 07:36:39;;;;;;;16.47;9.10;;;-2.30;99.90;;;;;;5048083;28;20461;-55
2022/01/26 07:39:09;;;;;;;52.07;10.87;;;-2.40;99.90;;;;;;5057568;28;20551;-56
2022/01/26 07:41:36;;;;;;;37.00;9.27;;;-2.70;99.90;;;;;;5063424;28;20438;-58
2022/01/26 07:44:04;;;;;;;11.07;8.23;;;-2.80;99.90;;;;;;5062839;28;20860;-55
2022/01/26 07:46:31;;;;;;;9.00;8.10;;;-2.90;99.90;;;;;;5049464;28;20948;-55
2022/01/26 07:48:59;;;;;;;9.00;8.20;;;-2.80;99.90;;;;;;5056170;28;20470;-55
2022/01/26 07:51:27;;;;;;;7.50;6.73;;;-2.70;99.90;;;;;;5061797;28;20503;-55
2022/01/26 07:53:54;;;;;;;6.87;5.90;;;-2.60;99.90;;;;;;5057094;28;20508;-55
2022/01/26 07:56:21;;;;;;;11.83;7.37;;;-2.50;99.90;;;;;;5055494;28;20445;-55
2022/01/26 07:58:48;;;;;;;13.73;8.20;;;-2.50;99.90;;;;;;5054824;28;20911;-56
2022/01/26 08:01:16;;;;;;;10.93;7.23;;;-2.90;99.90;;;;;;5055943;28;20481;-56
2022/01/26 08:03:42;;;;;;;15.40;11.40;;;-3.20;99.90;;;;;;5057934;28;20502;-55
2022/01/26 08:06:15;;;;;;;14.73;10.90;;;-3.10;99.90;;;;;;5053549;28;20475;-55
2022/01/26 08:08:43;;;;;;;7.33;5.93;;;-2.90;99.90;;;;;;5052028;28;20478;-55
2022/01/26 08:11:10;;;;;;;8.07;7.07;;;-2.90;99.90;;;;;;5060146;28;20883;-57
2022/01/26 08:13:37;;;;;;;12.40;9.37;;;-2.80;99.90;;;;;;5057526;28;20895;-55
2022/01/26 08:16:05;;;;;;;10.60;7.90;;;-2.70;99.90;;;;;;5051878;28;20471;-55
2022/01/26 08:18:32;;;;;;;13.77;7.87;;;-3.30;99.90;;;;;;5048955;28;20496;-55
2022/01/26 08:21:05;;;;;;;20.47;14.27;;;-3.30;99.90;;;;;;5052098;28;20449;-58
2022/01/26 08:23:32;;;;;;;12.87;9.10;;;-3.10;99.90;;;;;;5064839;28;20494;-56
2022/01/26 08:26:01;;;;;;;11.00;9.27;;;-3.00;99.90;;;;;;5060924;28;20941;-55
2022/01/26 08:28:33;;;;;;;13.10;8.00;;;-2.90;99.90;;;;;;5043375;28;20497;-55
2022/01/26 08:31:00;;;;;;;14.23;10.23;;;-3.00;99.90;;;;;;5056602;28;20482;-54
2022/01/26 08:33:27;;;;;;;15.27;11.50;;;-2.90;99.90;;;;;;5053195;28;20552;-55
2022/01/26 08:35:54;;;;;;;8.00;7.13;;;-2.80;99.90;;;;;;5055330;28;20465;-55
2022/01/26 08:38:21;;;;;;;5.80;5.30;;;-2.80;99.90;;;;;;5055413;28;20476;-54
2022/01/26 08:40:49;;;;;;;6.93;6.30;;;-3.00;99.90;;;;;;5057328;28;20440;-56
2022/01/26 08:43:17;;;;;;;5.90;5.30;;;-3.00;99.90;;;;;;5057488;28;20954;-54
2022/01/26 08:45:44;;;;;;;6.20;5.60;;;-2.90;99.90;;;;;;5058758;28;20464;-58
2022/01/26 08:48:12;;;;;;;5.83;5.23;;;-2.80;99.90;;;;;;5053612;28;20474;-56
2022/01/26 08:50:39;;;;;;;6.30;5.70;;;-2.70;99.90;;;;;;5055029;28;20477;-56
2022/01/26 08:53:06;;;;;;;5.93;5.37;;;-2.70;99.90;;;;;;5062562;28;20477;-55
2022/01/26 08:55:36;;;;;;;5.60;5.10;;;-2.60;99.90;;;;;;5049378;28;20858;-55
2022/01/26 08:58:03;;;;;;;4.50;4.10;;;-2.60;99.90;;;;;;5049731;28;20456;-55
2022/01/26 09:00:32;;;;;;;6.87;5.60;;;-2.60;99.90;;;;;;5049800;28;20478;-55
2022/01/26 09:02:59;;;;;;;11.63;8.50;;;-2.60;99.90;;;;;;5052866;28;20484;-55
2022/01/26 09:05:27;;;;;;;7.47;5.73;;;-2.60;99.90;;;;;;5063218;28;20463;-55
2022/01/26 09:07:57;;;;;;;6.77;5.70;;;-2.50;99.90;;;;;;5045288;28;20499;-55
2022/01/26 09:10:26;;;;;;;18.57;16.17;;;-2.50;99.90;;;;;;5050779;28;20535;-55
2022/01/26 09:12:54;;;;;;;9.23;7.50;;;-2.70;99.90;;;;;;5038743;28;20446;-56
2022/01/26 09:15:26;;;;;;;13.37;11.80;;;-2.90;99.90;;;;;;5054204;28;20482;-58
2022/01/26 09:17:55;;;;;;;7.40;6.67;;;-2.80;99.90;;;;;;5051797;28;20475;-55
2022/01/26 09:20:22;;;;;;;6.40;5.63;;;-2.70;99.90;;;;;;5055443;28;20484;-57
2022/01/26 09:22:49;;;;;;;9.30;8.03;;;-2.70;99.90;;;;;;5053393;28;20449;-55
2022/01/26 09:25:16;;;;;;;8.50;6.77;;;-2.70;99.90;;;;;;5056162;28;20469;-56
2022/01/26 09:27:43;;;;;;;7.17;6.47;;;-2.70;99.90;;;;;;5054862;28;20468;-55
2022/01/26 09:30:11;;;;;;;9.50;6.50;;;-2.50;99.90;;;;;;5049657;28;20491;-56
2022/01/26 09:32:39;;;;;;;4.93;4.40;;;-2.50;99.90;;;;;;5055705;28;20575;-56
2022/01/26 09:35:09;;;;;;;9.20;7.30;;;-2.60;99.90;;;;;;5062459;28;20520;-55
2022/01/26 09:37:37;;;;;;;6.80;6.03;;;-2.50;99.90;;;;;;5051443;28;20446;-55
2022/01/26 09:40:06;;;;;;;9.10;6.80;;;-2.40;99.90;;;;;;5045724;28;20494;-57
2022/01/26 09:42:34;;;;;;;4.73;4.30;;;-2.30;99.90;;;;;;5050779;28;20941;-55
2022/01/26 09:45:01;;;;;;;6.03;5.40;;;-2.20;99.90;;;;;;5057641;28;20819;-55
2022/01/26 09:47:28;;;;;;;11.03;7.77;;;-2.10;99.90;;;;;;5062947;28;20970;-56
2022/01/26 09:49:55;;;;;;;6.20;5.07;;;-2.10;99.90;;;;;;5055385;28;20562;-55
2022/01/26 09:52:31;;;;;;;4.70;4.23;;;-2.00;99.90;;;;;;5051552;28;20495;-56
2022/01/26 09:54:59;;;;;;;3.87;3.57;;;-2.10;99.90;;;;;;5050457;28;20476;-55
2022/01/26 09:57:27;;;;;;;4.13;3.77;;;-2.10;99.90;;;;;;5058368;28;20485;-55
2022/01/26 09:59:54;;;;;;;3.00;2.67;;;-2.40;99.90;;;;;;5053872;28;20488;-55
2022/01/26 10:02:23;;;;;;;2.17;1.60;;;-2.40;99.90;;;;;;5058076;28;20526;-54
2022/01/26 10:04:56;;;;;;;3.13;2.30;;;-2.30;99.90;;;;;;5057262;28;20470;-57
2022/01/26 10:07:28;;;;;;;3.73;2.40;;;-2.40;99.90;;;;;;5059910;28;20464;-56
2022/01/26 10:10:06;;;;;;;2.07;1.70;;;-2.30;99.90;;;;;;5063122;28;20480;-55
2022/01/26 10:18:14;;;;;;;1.97;1.77;;;-1.60;99.90;;;;;;5039637;28;20823;-56
2022/01/26 10:20:46;;;;;;;1.67;1.53;;;-1.50;99.90;;;;;;5050945;28;21391;-56
2022/01/26 10:23:17;;;;;;;1.40;1.30;;;-1.40;99.90;;;;;;5063364;28;20505;-57
2022/01/26 10:25:46;;;;;;;4.90;1.50;;;-1.30;99.90;;;;;;5060337;28;20440;-56
2022/01/26 10:28:15;;;;;;;3.00;1.33;;;-1.20;99.90;;;;;;5058143;28;20436;-56
2022/01/26 10:30:47;;;;;;;2.67;1.20;;;-1.10;99.90;;;;;;5058814;28;20947;-56
2022/01/26 10:33:16;;;;;;;6.60;6.00;;;-1.00;99.90;;;;;;5055295;28;20453;-56
2022/01/26 10:35:43;;;;;;;13.07;11.67;;;-0.90;99.90;;;;;;5057693;28;20552;-57
2022/01/26 10:38:10;;;;;;;13.63;12.23;;;-0.80;99.90;;;;;;5054648;28;20484;-57
2022/01/26 10:40:40;;;;;;;11.50;9.40;;;-0.90;99.90;;;;;;5056153;28;20475;-56
2022/01/26 10:43:10;;;;;;;18.10;14.07;;;-0.80;99.90;;;;;;5062448;28;20457;-56
2022/01/26 10:48:37;;;;;;;20.60;14.67;;;-0.60;99.90;;;;;;5054691;28;20943;-58
2022/01/26 10:53:58;;;;;;;9.50;8.17;;;-0.50;99.90;;;;;;5054676;28;20443;-57
2022/01/26 10:56:26;;;;;;;7.87;7.10;;;-0.30;99.90;;;;;;5055419;28;20488;-57
2022/01/26 10:58:53;;;;;;;7.53;6.70;;;-0.20;99.90;;;;;;5041668;28;20494;-57
2022/01/26 11:01:20;;;;;;;7.93;7.33;;;-0.20;99.90;;;;;;5057541;28;21024;-56
2022/01/26 11:03:47;;;;;;;8.60;7.07;;;-0.10;99.90;;;;;;5050533;28;20470;-57
2022/01/26 11:06:19;;;;;;;10.23;7.10;;;0.00;99.90;;;;;;5054736;28;20862;-57
2022/01/26 11:08:47;;;;;;;8.27;7.37;;;0.10;99.90;;;;;;5044502;28;20498;-56
2022/01/26 11:11:20;;;;;;;9.10;6.83;;;0.20;99.90;;;;;;5042820;28;20516;-57
2022/01/26 11:13:48;;;;;;;6.33;5.50;;;0.30;99.90;;;;;;5047530;28;20968;-57
2022/01/26 11:16:16;;;;;;;6.53;4.53;;;0.30;99.90;;;;;;5039165;28;20516;-57
2022/01/26 11:18:51;;;;;;;5.80;5.20;;;0.40;99.90;;;;;;5039545;28;21023;-57
2022/01/26 11:21:30;;;;;;;6.70;5.77;;;0.50;99.90;;;;;;5044485;28;20525;-57
2022/01/26 11:24:08;;;;;;;7.80;6.07;;;0.50;99.90;;;;;;5044441;28;20855;-56
2022/01/26 11:26:38;;;;;;;7.70;7.00;;;0.50;99.90;;;;;;5044543;28;20996;-57
2022/01/26 11:29:20;;;;;;;6.57;5.97;;;0.70;99.90;;;;;;5044656;28;20566;-59
2022/01/26 11:31:47;;;;;;;8.63;7.73;;;0.60;99.90;;;;;;5041249;28;20804;-58
2022/01/26 11:34:18;;;;;;;6.50;5.50;;;0.70;99.90;;;;;;5041948;28;20445;-56
2022/01/26 11:36:48;;;;;;;6.30;5.77;;;0.80;99.90;;;;;;5046484;28;20943;-58
2022/01/26 11:42:17;;;;;;;5.17;3.90;;;1.00;99.90;;;;;;5041924;28;20427;-58
2022/01/26 11:45:06;;;;;;;4.33;3.93;;;1.00;99.90;;;;;;5044436;28;20802;-58
2022/01/26 11:47:33;;;;;;;3.27;2.97;;;1.10;99.90;;;;;;5043534;28;20449;-58
2022/01/26 11:50:14;;;;;;;3.67;3.30;;;1.10;99.90;;;;;;5046171;28;20495;-57
2022/01/26 11:52:44;;;;;;;5.20;4.70;;;1.20;99.90;;;;;;5050579;28;20452;-56
2022/01/26 11:55:28;;;;;;;6.20;5.50;;;1.20;99.90;;;;;;5045892;28;20510;-56
2022/01/26 11:58:05;;;;;;;5.87;4.70;;;1.30;99.90;;;;;;5038401;28;20459;-57
2022/01/26 12:00:44;;;;;;;6.80;6.20;;;1.30;99.90;;;;;;5046586;28;20460;-56
2022/01/26 12:03:26;;;;;;;6.00;5.40;;;1.20;99.90;;;;;;5057113;28;20542;-56
2022/01/26 12:05:57;;;;;;;5.83;5.33;;;1.20;99.90;;;;;;5059394;28;20477;-57
2022/01/26 12:08:35;;;;;;;7.40;5.67;;;1.30;99.90;;;;;;5050986;28;20471;-56
2022/01/26 12:11:03;;;;;;;5.53;5.00;;;1.30;99.90;;;;;;5045392;28;20473;-56
2022/01/26 12:13:32;;;;;;;7.70;4.97;;;1.40;99.90;;;;;;5055573;28;20474;-57
2022/01/26 12:16:07;;;;;;;4.97;4.57;;;1.40;99.90;;;;;;5060266;28;20484;-56
2022/01/26 12:18:40;;;;;;;8.93;5.53;;;1.40;99.90;;;;;;5054659;28;20946;-57
2022/01/26 12:32:43;;;;;;;4.20;3.60;;;1.80;99.90;;;;;;5059151;28;20987;-57
2022/01/26 12:35:19;;;;;;;4.37;4.00;;;1.80;99.90;;;;;;5061070;28;20860;-56
2022/01/26 12:38:01;;;;;;;4.93;3.90;;;1.90;99.90;;;;;;5042800;28;20448;-57
2022/01/26 12:43:16;;;;;;;5.57;4.80;;;2.10;99.90;;;;;;5053802;28;20579;-57
2022/01/26 12:45:46;;;;;;;5.80;5.17;;;2.10;99.90;;;;;;5061646;28;20470;-56
2022/01/26 12:48:14;;;;;;;5.53;4.33;;;2.00;99.90;;;;;;5061422;28;20929;-57
2022/01/26 12:50:43;;;;;;;5.27;4.83;;;2.00;99.90;;;;;;5051664;28;21023;-56
2022/01/26 12:53:10;;;;;;;5.80;5.10;;;2.00;99.90;;;;;;5050314;28;20520;-58
2022/01/26 12:55:39;;;;;;;4.87;4.10;;;2.10;99.90;;;;;;5055925;28;20996;-57
2022/01/26 12:58:06;;;;;;;5.23;4.73;;;2.10;99.90;;;;;;5062161;28;20451;-60
2022/01/26 13:00:41;;;;;;;6.17;5.57;;;2.10;99.90;;;;;;5055241;28;20470;-56
2022/01/26 13:03:19;;;;;;;6.30;4.67;;;2.00;99.90;;;;;;5052513;28;20998;-59
2022/01/26 13:05:46;;;;;;;5.17;4.30;;;2.10;99.90;;;;;;5054700;28;20449;-56
2022/01/26 13:08:13;;;;;;;5.73;4.47;;;2.10;99.90;;;;;;5046999;28;20476;-56
2022/01/26 13:10:41;;;;;;;6.67;4.73;;;2.20;99.90;;;;;;5080866;23;20512;-87
2022/01/26 13:13:17;;;;;;;4.87;4.47;;;2.20;99.90;;;;;;5054769;28;20461;-87
2022/01/26 13:15:51;;;;;;;4.80;4.13;;;2.20;99.90;;;;;;5048261;28;21000;-87
2022/01/26 13:24:13;;;;;;;5.03;4.10;;;2.30;99.90;;;;;;5008183;28;20472;-86
2022/01/26 13:26:49;;;;;;;4.53;4.13;;;2.30;99.90;;;;;;5060674;28;20478;-87
2022/01/26 13:29:31;;;;;;;4.20;3.57;;;2.40;99.90;;;;;;5061633;28;20520;-87
2022/01/26 13:35:12;;;;;;;4.13;3.73;;;2.40;99.90;;;;;;5061812;28;20447;-87
2022/01/26 13:37:50;;;;;;;4.77;3.20;;;2.40;99.90;;;;;;5064317;28;20439;-86
2022/01/26 13:40:39;;;;;;;3.20;2.90;;;2.40;99.90;;;;;;5066921;28;20447;-86
2022/01/26 13:43:40;;;;;;;3.83;3.43;;;2.50;99.90;;;;;;5066192;28;20531;-87
2022/01/26 13:49:30;;;;;;;4.10;3.20;;;2.50;99.90;;;;;;4998811;28;20577;-87
2022/01/26 13:52:06;;;;;;;4.90;4.43;;;2.50;99.90;;;;;;4998077;28;20477;-87
2022/01/26 13:54:58;;;;;;;5.00;4.50;;;2.60;99.90;;;;;;5031240;28;20890;-87
2022/01/26 13:57:53;;;;;;;6.13;4.20;;;2.60;99.90;;;;;;5062020;28;20930;-87
2022/01/26 14:00:22;;;;;;;4.10;2.97;;;2.60;99.90;;;;;;5058497;28;20447;-86
2022/01/26 14:02:56;;;;;;;3.87;3.43;;;2.60;99.90;;;;;;5056375;28;20461;-87
2022/01/26 14:05:23;;;;;;;4.17;3.10;;;2.70;99.90;;;;;;5058928;28;20432;-87
2022/01/26 14:07:54;;;;;;;4.53;3.10;;;2.60;99.90;;;;;;5053296;28;20473;-87
2022/01/26 14:10:22;;;;;;;5.40;3.10;;;2.60;99.90;;;;;;5057430;28;20507;-86
2022/01/26 14:12:50;;;;;;;3.93;3.20;;;2.60;99.90;;;;;;5067367;28;20466;-87
2022/01/26 14:15:22;;;;;;;3.90;2.90;;;2.60;99.90;;;;;;5059134;28;20448;-86
2022/01/26 14:18:07;;;;;;;4.10;3.30;;;2.60;99.90;;;;;;5048392;28;20540;-87
2022/01/26 14:20:51;;;;;;;3.20;2.90;;;2.60;99.90;;;;;;5050070;28;20449;-87
2022/01/26 14:23:56;;;;;;;3.30;3.03;;;2.50;99.90;;;;;;5060059;28;20504;-86
2022/01/26 14:26:26;;;;;;;4.13;3.33;;;2.50;99.90;;;;;;5053715;28;20457;-86
2022/01/26 14:28:53;;;;;;;3.37;3.07;;;2.60;99.90;;;;;;5060392;28;20528;-87
2022/01/26 14:36:52;;;;;;;2.57;2.13;;;2.70;99.90;;;;;;5025732;28;21053;-57
2022/01/26 14:39:52;;;;;;;3.20;2.90;;;2.70;99.90;;;;;;5041768;28;20544;-57
2022/01/26 14:59:58;;;;;;;2.20;2.00;;;2.60;99.90;;;;;;5043190;28;20807;-58
2022/01/26 15:34:57;;;;;;;8.10;3.33;;;1.60;99.90;;;;;;5023106;28;20440;-59
2022/01/26 15:40:22;;;;;;;5.27;4.77;;;1.30;99.90;;;;;;5062283;28;20425;-58
2022/01/26 15:51:10;;;;;;;3.03;2.83;;;0.90;99.90;;;;;;5044398;28;20428;-58
2022/01/26 15:59:20;;;;;;;2.63;2.20;;;0.90;99.90;;;;;;5061655;28;20963;-57
2022/01/26 16:04:57;;;;;;;6.93;5.57;;;1.00;99.90;;;;;;5048785;28;20458;-56